Time;durP1;ratioP1;P1;durP2;ratioP2;P2;SDS_P1;SDS_P2;PMS_P1;PMS_P2;Temp;Humidity;BMP_temperature;BMP_pressure;BME280_temperature;BME280_humidity;BME280_pressure;Samples;Min_cycle;Max_cycle;Signal;HPM_P1;HPM_P2
2022/10/05 00:01:47;;;;;;;1.70;1.20;;;;;;;15.53;nan;101499.06;5074086;28;20103;-52
2022/10/05 00:04:17;;;;;;;2.30;1.52;;;;;;;15.79;nan;101551.91;5092836;28;20398;-51
2022/10/05 00:06:44;;;;;;;2.42;1.20;;;;;;;15.77;nan;101557.31;5078353;28;20044;-49
2022/10/05 00:09:14;;;;;;;1.67;1.20;;;;;;;15.54;nan;101508.78;5077612;28;20040;-48
2022/10/05 00:11:40;;;;;;;3.97;1.38;;;;;;;15.48;nan;101493.09;5080427;28;20472;-49
2022/10/05 00:14:28;;;;;;;2.55;1.42;;;;;;;15.49;nan;101495.72;5075979;28;20090;-54
2022/10/05 00:16:54;;;;;;;1.58;0.98;;;;;;;15.79;nan;101530.69;5075751;28;20029;-51
2022/10/05 00:19:31;;;;;;;4.72;1.63;;;;;;;15.78;nan;101531.63;5075879;28;20040;-52
2022/10/05 00:22:21;;;;;;;1.60;1.13;;;;;;;15.78;nan;101528.97;5075605;28;20035;-50
2022/10/05 00:24:49;;;;;;;2.35;1.20;;;;;;;15.51;nan;101490.31;5065431;28;20033;-49
2022/10/05 00:27:21;;;;;;;1.58;1.23;;;;;;;15.73;nan;101541.59;5057737;28;20037;-47
2022/10/05 00:29:48;;;;;;;2.25;1.40;;;;;;;15.45;nan;101495.84;5075518;28;20153;-45
2022/10/05 00:32:13;;;;;;;3.53;1.45;;;;;;;15.70;nan;101541.72;5075679;28;20085;-52
2022/10/05 00:34:39;;;;;;;1.42;1.17;;;;;;;15.66;nan;101537.44;5076696;28;20272;-47
2022/10/05 00:37:05;;;;;;;3.92;1.73;;;;;;;15.52;nan;101507.97;5077224;28;20035;-50
2022/10/05 00:39:32;;;;;;;2.00;1.27;;;;;;;15.68;nan;101541.75;5095531;28;20387;-49
2022/10/05 00:42:08;;;;;;;2.05;1.25;;;;;;;15.65;nan;101533.94;5077605;28;20437;-51
2022/10/05 00:44:39;;;;;;;2.20;1.42;;;;;;;15.61;nan;101507.59;5077049;28;20043;-53
2022/10/05 00:47:32;;;;;;;1.13;1.00;;;;;;;15.71;nan;101527.50;5095375;28;20032;-55
2022/10/05 00:50:34;;;;;;;3.00;1.30;;;;;;;15.69;nan;101502.81;5094610;28;20100;-54
2022/10/05 00:53:15;;;;;;;1.48;1.10;;;;;;;15.70;nan;101507.22;5094784;28;20031;-50
2022/10/05 00:56:02;;;;;;;1.98;1.08;;;;;;;15.65;nan;101504.72;5076508;28;20107;-49
2022/10/05 00:58:51;;;;;;;1.77;0.93;;;;;;;15.65;nan;101502.09;5077387;28;20379;-53
2022/10/05 01:01:28;;;;;;;2.08;1.17;;;;;;;15.58;nan;101484.72;5055926;28;20480;-50
2022/10/05 01:04:21;;;;;;;1.52;0.93;;;;;;;15.60;nan;101493.47;5094761;28;20108;-52
2022/10/05 01:07:06;;;;;;;1.55;1.00;;;;;;;15.19;nan;101420.03;5046933;28;20036;-52
2022/10/05 01:09:56;;;;;;;1.67;1.08;;;;;;;15.64;nan;101481.78;5073189;28;20052;-50
2022/10/05 01:12:39;;;;;;;1.73;1.15;;;;;;;15.66;nan;101476.41;5054695;28;20033;-55
2022/10/05 01:15:16;;;;;;;1.52;0.93;;;;;;;15.51;nan;101424.00;5054306;28;20048;-57
2022/10/05 01:17:44;;;;;;;1.20;1.05;;;;;;;15.63;nan;101460.63;5054830;28;20029;-52
2022/10/05 01:20:21;;;;;;;2.25;0.75;;;;;;;15.59;nan;101456.38;5054373;28;20465;-51
2022/10/05 01:23:21;;;;;;;1.88;1.10;;;;;;;15.57;nan;101451.13;5054614;28;20075;-51
2022/10/05 01:25:59;;;;;;;1.70;0.80;;;;;;;15.34;nan;101427.34;5024148;28;20048;-49
2022/10/05 01:28:33;;;;;;;1.30;0.80;;;;;;;15.27;nan;101401.13;5036617;28;20170;-51
2022/10/05 01:31:16;;;;;;;1.15;0.82;;;;;;;15.57;nan;101463.53;5054415;28;20482;-51
2022/10/05 01:34:07;;;;;;;0.77;0.70;;;;;;;15.58;nan;101455.53;5054191;28;20039;-55
2022/10/05 01:36:33;;;;;;;;;;;;;;;15.60;nan;101468.72;5035664;28;20416;-50
2022/10/05 01:39:16;;;;;;;1.98;0.75;;;;;;;15.64;nan;101472.97;5052955;28;20387;-51
2022/10/05 01:41:44;;;;;;;2.58;1.00;;;;;;;15.41;nan;101415.53;5052754;28;20025;-57
2022/10/05 01:44:16;;;;;;;3.65;1.25;;;;;;;15.65;nan;101456.97;5054126;28;20040;-54
2022/10/05 01:46:53;;;;;;;1.58;0.98;;;;;;;15.40;nan;101391.75;5052847;28;20035;-51
2022/10/05 01:49:42;;;;;;;2.55;1.20;;;;;;;15.36;nan;101375.09;5052843;28;20555;-53
2022/10/05 01:52:16;;;;;;;2.42;0.90;;;;;;;15.62;nan;101414.63;5052744;28;20468;-50
2022/10/05 01:54:52;;;;;;;2.50;1.05;;;;;;;15.58;nan;101413.06;5053808;28;20037;-53
2022/10/05 01:57:26;;;;;;;2.38;1.30;;;;;;;15.57;nan;101416.63;5069377;28;20029;-56
2022/10/05 01:59:54;;;;;;;3.10;1.50;;;;;;;15.52;nan;101418.66;5054032;28;20043;-51
2022/10/05 02:02:22;;;;;;;1.75;1.35;;;;;;;15.43;nan;101402.22;5052585;28;20503;-53
2022/10/05 02:05:15;;;;;;;2.55;1.30;;;;;;;15.46;nan;101395.00;5052243;28;20032;-50
2022/10/05 02:07:45;;;;;;;3.72;1.55;;;;;;;15.40;nan;101394.38;5052670;28;20064;-50
2022/10/05 02:10:43;;;;;;;4.20;1.67;;;;;;;15.34;nan;101371.66;5071623;28;20097;-55
2022/10/05 02:13:33;;;;;;;3.38;2.47;;;;;;;15.00;nan;101332.44;5092665;28;20028;-58
2022/10/05 02:16:02;;;;;;;4.05;1.90;;;;;;;15.17;nan;101355.59;5064874;28;20062;-53
2022/10/05 02:18:33;;;;;;;6.75;2.47;;;;;;;14.89;nan;101326.75;5055536;28;20039;-51
2022/10/05 02:20:59;;;;;;;;;;;;;;;15.10;nan;101368.25;5055929;28;20032;-51
2022/10/05 02:23:26;;;;;;;3.90;2.10;;;;;;;15.07;nan;101371.03;5073188;28;20295;-54
2022/10/05 02:25:53;;;;;;;5.32;2.20;;;;;;;15.11;nan;101382.38;5055402;28;20032;-54
2022/10/05 02:28:32;;;;;;;2.60;1.98;;;;;;;14.72;nan;101296.59;5071671;28;20068;-53
2022/10/05 02:31:08;;;;;;;4.15;2.00;;;;;;;14.79;nan;101301.56;5055792;28;20090;-52
2022/10/05 02:33:34;;;;;;;3.13;2.45;;;;;;;15.19;nan;101364.34;5073061;28;20055;-56
2022/10/05 02:36:01;;;;;;;2.42;1.88;;;;;;;14.95;nan;101320.31;5072981;28;20484;-52
2022/10/05 02:38:39;;;;;;;2.72;2.10;;;;;;;15.14;nan;101351.31;5055175;28;20043;-52
2022/10/05 02:41:13;;;;;;;2.33;2.10;;;;;;;15.14;nan;101369.00;5072926;28;20032;-55
2022/10/05 02:43:46;;;;;;;2.90;2.35;;;;;;;15.10;nan;101380.66;5072895;28;20036;-54
2022/10/05 02:46:18;;;;;;;5.18;2.30;;;;;;;15.07;nan;101383.44;5072742;28;20044;-50
2022/10/05 02:48:55;;;;;;;3.72;2.20;;;;;;;15.03;nan;101373.91;5072630;28;20029;-53
2022/10/05 02:51:27;;;;;;;5.47;2.38;;;;;;;14.64;nan;101313.69;5072862;28;20056;-55
2022/10/05 02:54:17;;;;;;;4.18;2.10;;;;;;;14.98;nan;101371.44;5054922;28;20081;-53
2022/10/05 02:56:43;;;;;;;3.17;2.08;;;;;;;15.04;nan;101376.47;5072631;28;20078;-54
2022/10/05 02:59:30;;;;;;;2.63;2.38;;;;;;;15.02;nan;101367.72;5072581;28;20484;-51
2022/10/05 03:02:09;;;;;;;2.00;1.90;;;;;;;14.79;nan;101327.22;5072603;28;20036;-53
2022/10/05 03:04:41;;;;;;;3.35;2.47;;;;;;;15.03;nan;101384.50;5067284;28;20040;-52
2022/10/05 03:07:40;;;;;;;3.38;2.58;;;;;;;15.06;nan;101369.31;5074626;28;20446;-52
2022/10/05 03:10:14;;;;;;;4.32;2.50;;;;;;;14.86;nan;101332.19;5072156;28;20066;-50
2022/10/05 03:12:54;;;;;;;5.60;2.63;;;;;;;15.03;nan;101358.00;5072496;28;20036;-55
2022/10/05 03:15:50;;;;;;;4.88;2.67;;;;;;;15.09;nan;101365.69;5072282;28;20029;-54
2022/10/05 03:18:22;;;;;;;3.63;2.10;;;;;;;15.09;nan;101363.03;5072385;28;20028;-50
2022/10/05 03:20:48;;;;;;;3.53;2.58;;;;;;;15.08;nan;101362.16;5071199;28;20456;-51
2022/10/05 03:23:41;;;;;;;2.85;2.10;;;;;;;15.11;nan;101362.03;5072424;28;20055;-51
2022/10/05 03:26:44;;;;;;;2.20;1.80;;;;;;;15.15;nan;101362.75;5054303;28;20028;-50
2022/10/05 03:29:28;;;;;;;2.17;1.60;;;;;;;15.20;nan;101364.31;5072219;28;20373;-52
2022/10/05 03:32:01;;;;;;;1.77;1.60;;;;;;;15.11;nan;101329.34;5072186;28;20115;-56
2022/10/05 03:34:45;;;;;;;2.75;1.60;;;;;;;15.12;nan;101350.47;5071739;28;20537;-53
2022/10/05 03:37:18;;;;;;;3.75;2.03;;;;;;;15.15;nan;101355.66;5072386;28;20392;-49
2022/10/05 03:39:48;;;;;;;2.83;1.83;;;;;;;15.19;nan;101356.38;5053242;28;20028;-55
2022/10/05 03:42:18;;;;;;;1.63;1.52;;;;;;;15.20;nan;101359.00;5071057;28;20078;-54
2022/10/05 03:44:47;;;;;;;2.67;2.05;;;;;;;15.24;nan;101354.41;5071914;28;20059;-49
2022/10/05 03:47:19;;;;;;;3.45;1.80;;;;;;;15.23;nan;101362.44;5072204;28;20059;-52
2022/10/05 03:50:05;;;;;;;3.83;2.10;;;;;;;15.23;nan;101350.88;5070870;28;20055;-52
2022/10/05 03:52:38;;;;;;;4.43;2.10;;;;;;;14.95;nan;101305.28;5071966;28;20025;-54
2022/10/05 03:55:03;;;;;;;2.33;1.80;;;;;;;15.26;nan;101355.22;5087449;28;20034;-54
2022/10/05 03:57:33;;;;;;;2.67;2.10;;;;;;;15.23;nan;101348.22;5092076;28;20039;-55
2022/10/05 04:00:03;;;;;;;4.10;2.15;;;;;;;15.27;nan;101358.69;5074325;28;20122;-49
2022/10/05 04:02:33;;;;;;;3.10;1.90;;;;;;;15.25;nan;101344.66;5092188;28;20032;-57
2022/10/05 04:05:11;;;;;;;3.27;2.30;;;;;;;15.21;nan;101346.56;5074046;28;20035;-54
2022/10/05 04:08:10;;;;;;;4.10;1.70;;;;;;;15.23;nan;101345.56;5074066;28;20040;-51
2022/10/05 04:10:48;;;;;;;3.63;1.80;;;;;;;15.26;nan;101335.78;5073681;28;20036;-56
2022/10/05 04:13:34;;;;;;;3.97;1.75;;;;;;;15.25;nan;101339.34;5073936;28;20383;-52
2022/10/05 04:16:04;;;;;;;2.10;1.80;;;;;;;15.05;nan;101308.41;5073962;28;20032;-52
2022/10/05 04:18:34;;;;;;;2.05;1.60;;;;;;;15.25;nan;101344.66;5073813;28;20032;-54
2022/10/05 04:21:04;;;;;;;2.40;1.67;;;;;;;15.31;nan;101342.59;5073696;28;20024;-53
2022/10/05 04:23:42;;;;;;;2.15;1.42;;;;;;;15.39;nan;101344.91;5073977;28;20077;-54
2022/10/05 04:26:13;;;;;;;2.53;2.08;;;;;;;15.41;nan;101338.59;5091891;28;20046;-54
2022/10/05 04:28:47;;;;;;;1.70;1.60;;;;;;;15.37;nan;101320.25;5056897;28;20032;-52
2022/10/05 04:31:19;;;;;;;3.85;2.13;;;;;;;15.09;nan;101284.31;5073728;28;20074;-54
2022/10/05 04:33:48;;;;;;;3.70;1.88;;;;;;;15.23;nan;101306.75;5073813;28;20028;-54
2022/10/05 04:36:30;;;;;;;2.33;1.75;;;;;;;15.04;nan;101278.38;5073509;28;20066;-53
2022/10/05 04:39:19;;;;;;;2.40;1.70;;;;;;;15.30;nan;101316.13;5091254;28;20089;-53
2022/10/05 04:42:10;;;;;;;2.67;1.60;;;;;;;15.29;nan;101304.69;5073842;28;20046;-55
2022/10/05 04:45:03;;;;;;;2.55;1.35;;;;;;;15.30;nan;101316.13;5091351;28;20161;-56
2022/10/05 04:47:56;;;;;;;1.33;1.15;;;;;;;15.29;nan;101309.13;5091479;28;20383;-51
2022/10/05 04:50:41;;;;;;;2.58;1.10;;;;;;;15.30;nan;101301.09;5092891;28;20036;-51
2022/10/05 04:53:16;;;;;;;2.72;1.13;;;;;;;15.20;nan;101291.84;5077393;28;20036;-54
2022/10/05 04:56:01;;;;;;;2.08;1.13;;;;;;;15.23;nan;101314.69;5077169;28;20040;-48
2022/10/05 04:58:59;;;;;;;1.80;1.50;;;;;;;14.93;nan;101258.56;5095339;28;20036;-53
2022/10/05 05:01:55;;;;;;;0.95;0.90;;;;;;;15.13;nan;101287.72;5095146;28;20039;-55
2022/10/05 05:04:42;;;;;;;2.28;1.20;;;;;;;15.04;nan;101288.97;5094183;28;20040;-51
2022/10/05 05:07:10;;;;;;;0.90;0.90;;;;;;;14.98;nan;101293.69;5094966;28;20020;-52
2022/10/05 05:10:05;;;;;;;2.70;1.20;;;;;;;15.00;nan;101291.84;5094934;28;20048;-51
2022/10/05 05:12:42;;;;;;;2.70;1.00;;;;;;;14.98;nan;101289.25;5058497;28;20040;-49
2022/10/05 05:15:27;;;;;;;1.10;1.00;;;;;;;14.73;nan;101253.25;5074481;28;20102;-56
2022/10/05 05:17:56;;;;;;;3.38;1.10;;;;;;;14.98;nan;101289.25;5056827;28;20036;-50
2022/10/05 05:20:57;;;;;;;1.10;0.75;;;;;;;14.99;nan;101287.47;5074722;28;20032;-49
2022/10/05 05:23:36;;;;;;;0.93;0.82;;;;;;;14.78;nan;101246.84;5074386;28;20036;-50
2022/10/05 05:26:06;;;;;;;1.27;1.08;;;;;;;15.02;nan;101282.91;5040783;28;20035;-48
2022/10/05 05:28:42;;;;;;;1.52;0.73;;;;;;;15.02;nan;101280.25;5073162;28;20082;-53
2022/10/05 05:31:32;;;;;;;1.00;0.80;;;;;;;14.78;nan;101228.28;5056257;28;20157;-49
2022/10/05 05:34:04;;;;;;;0.90;0.60;;;;;;;15.06;nan;101276.50;5066171;28;20040;-52
2022/10/05 05:36:34;;;;;;;2.80;0.60;;;;;;;15.10;nan;101285.19;5094512;28;20032;-49
2022/10/05 05:39:24;;;;;;;0.57;0.50;;;;;;;15.14;nan;101279.72;5076493;28;20020;-46
2022/10/05 05:42:00;;;;;;;0.82;0.75;;;;;;;14.57;nan;101190.34;5094147;28;20036;-52
2022/10/05 05:44:33;;;;;;;1.08;0.70;;;;;;;15.08;nan;101268.50;5094283;28;20032;-50
2022/10/05 05:47:01;;;;;;;1.88;0.80;;;;;;;14.91;nan;101240.09;5076406;28;20093;-47
2022/10/05 05:49:34;;;;;;;0.65;0.57;;;;;;;14.86;nan;101230.59;5076101;28;20028;-50
2022/10/05 05:52:21;;;;;;;1.25;0.85;;;;;;;15.09;nan;101267.59;5094048;28;20483;-50
2022/10/05 05:54:57;;;;;;;1.95;0.90;;;;;;;14.91;nan;101231.28;5076021;28;20503;-53
2022/10/05 05:57:36;;;;;;;2.67;0.90;;;;;;;15.13;nan;101277.97;5075893;28;20422;-54
2022/10/05 06:00:14;;;;;;;0.93;0.68;;;;;;;15.13;nan;101259.41;5075633;28;20100;-51
2022/10/05 06:02:43;;;;;;;1.02;0.80;;;;;;;14.90;nan;101232.19;5093192;28;20093;-45
2022/10/05 06:05:21;;;;;;;1.30;1.10;;;;;;;15.17;nan;101271.63;5076040;28;20104;-49
2022/10/05 06:07:47;;;;;;;1.25;1.00;;;;;;;15.23;nan;101277.56;5093971;28;20519;-49
2022/10/05 06:10:26;;;;;;;2.00;1.27;;;;;;;15.22;nan;101274.06;5069032;28;20135;-49
2022/10/05 06:12:53;;;;;;;3.08;0.98;;;;;;;15.04;nan;101243.91;5052195;28;20108;-54
2022/10/05 06:15:33;;;;;;;1.90;1.13;;;;;;;15.30;nan;101277.22;5052530;28;20056;-52
2022/10/05 06:18:02;;;;;;;1.73;1.10;;;;;;;15.33;nan;101285.03;5052382;28;20124;-48
2022/10/05 06:20:44;;;;;;;1.73;1.08;;;;;;;15.08;nan;101229.59;5052085;28;20021;-49
2022/10/05 06:23:17;;;;;;;1.80;1.08;;;;;;;15.09;nan;101239.25;5056584;28;20320;-50
2022/10/05 06:26:00;;;;;;;1.20;1.00;;;;;;;15.35;nan;101295.59;5072279;28;20024;-47
2022/10/05 06:28:28;;;;;;;1.95;1.30;;;;;;;15.36;nan;101284.91;5073174;28;20051;-49
2022/10/05 06:31:18;;;;;;;1.50;1.40;;;;;;;15.39;nan;101274.16;5071783;28;20033;-48
2022/10/05 06:33:49;;;;;;;3.03;1.40;;;;;;;15.41;nan;101288.19;5072977;28;20099;-48
2022/10/05 06:36:25;;;;;;;2.22;1.65;;;;;;;15.18;nan;101228.25;5071782;28;20040;-46
2022/10/05 06:38:50;;;;;;;1.23;1.13;;;;;;;15.44;nan;101271.31;5072930;28;20032;-47
2022/10/05 06:41:33;;;;;;;2.20;1.15;;;;;;;15.39;nan;101265.31;5071932;28;20560;-46
2022/10/05 06:44:08;;;;;;;3.20;1.33;;;;;;;15.40;nan;101275.88;5072883;28;20033;-48
2022/10/05 06:46:51;;;;;;;2.80;1.30;;;;;;;15.25;nan;101239.44;5072743;28;20052;-48
2022/10/05 06:49:17;;;;;;;2.00;1.23;;;;;;;15.50;nan;101281.69;5071667;28;20032;-49
2022/10/05 06:51:51;;;;;;;1.80;1.48;;;;;;;15.50;nan;101276.38;5072510;28;20386;-48
2022/10/05 06:54:26;;;;;;;3.80;1.60;;;;;;;15.55;nan;101293.81;5072696;28;20033;-51
2022/10/05 06:56:58;;;;;;;2.90;1.33;;;;;;;15.36;nan;101249.56;5073291;28;20036;-52
2022/10/05 06:59:33;;;;;;;2.65;1.48;;;;;;;15.57;nan;101286.63;5072511;28;20039;-49
2022/10/05 07:02:33;;;;;;;3.28;1.50;;;;;;;15.60;nan;101286.47;5071184;28;20067;-50
2022/10/05 07:05:27;;;;;;;3.72;1.35;;;;;;;15.58;nan;101274.22;5071083;28;20088;-49
2022/10/05 07:08:01;;;;;;;2.75;1.65;;;;;;;15.53;nan;101279.72;5072483;28;20032;-51
2022/10/05 07:10:41;;;;;;;4.70;2.33;;;;;;;15.62;nan;101276.66;5065357;28;20048;-51
2022/10/05 07:14:04;;;;;;;1.92;1.63;;;;;;;15.55;nan;101275.22;5050664;28;20424;-51
2022/10/05 07:16:37;;;;;;;2.20;1.27;;;;;;;15.57;nan;101273.34;4971204;28;20126;-55
2022/10/05 07:19:14;;;;;;;2.35;1.27;;;;;;;15.57;nan;101268.03;4954800;28;20485;-49
2022/10/05 07:22:04;;;;;;;3.33;1.52;;;;;;;15.10;nan;101187.97;5027715;28;20032;-52
2022/10/05 07:24:40;;;;;;;2.90;1.60;;;;;;;15.63;nan;101272.22;5051376;28;20033;-47
2022/10/05 07:27:15;;;;;;;4.15;1.60;;;;;;;15.64;nan;101260.66;5050093;28;20033;-52
2022/10/05 07:30:08;;;;;;;3.70;1.50;;;;;;;15.64;nan;101260.66;5049428;28;20036;-52
2022/10/05 07:32:53;;;;;;;3.35;1.35;;;;;;;15.68;nan;101262.22;5049510;28;20491;-50
2022/10/05 07:38:31;;;;;;;4.25;1.63;;;;;;;15.73;nan;101277.00;5051069;28;20052;-51
2022/10/05 07:41:18;;;;;;;2.80;1.25;;;;;;;15.75;nan;101261.88;5048955;28;20112;-56
2022/10/05 07:44:02;;;;;;;2.55;1.48;;;;;;;15.80;nan;101247.53;5049453;28;20037;-51
2022/10/05 07:46:45;;;;;;;1.98;1.50;;;;;;;15.82;nan;101267.75;5050416;28;20029;-55
2022/10/05 07:49:29;;;;;;;2.50;1.27;;;;;;;15.84;nan;101259.72;5050014;28;20060;-58
2022/10/05 07:51:59;;;;;;;3.00;1.52;;;;;;;15.90;nan;101254.13;5051459;28;20170;-56
2022/10/05 07:54:33;;;;;;;2.30;1.63;;;;;;;15.88;nan;101262.16;5033442;28;20468;-54
2022/10/05 07:57:17;;;;;;;3.03;1.77;;;;;;;15.91;nan;101263.78;5050897;28;20122;-55
2022/10/05 08:00:05;;;;;;;1.67;1.58;;;;;;;15.94;nan;101261.84;5049806;28;20057;-50
2022/10/05 08:02:43;;;;;;;1.70;1.60;;;;;;;15.95;nan;101258.28;5049940;28;20152;-53
2022/10/05 08:05:27;;;;;;;1.42;1.33;;;;;;;15.95;nan;101255.63;5067667;28;20043;-51
2022/10/05 08:08:10;;;;;;;2.10;1.30;;;;;;;15.96;nan;101252.03;5070966;28;20075;-57
2022/10/05 08:10:39;;;;;;;2.92;1.30;;;;;;;16.01;nan;101258.00;5079271;28;20068;-55
2022/10/05 08:13:18;;;;;;;2.38;1.65;;;;;;;16.05;nan;101262.19;5069973;28;20373;-53
2022/10/05 08:15:48;;;;;;;2.20;1.35;;;;;;;16.12;nan;101258.31;5084449;28;20024;-53
2022/10/05 08:18:15;;;;;;;3.95;1.80;;;;;;;16.16;nan;101251.94;5053197;28;20443;-57
2022/10/05 08:20:55;;;;;;;5.30;2.20;;;;;;;15.95;nan;101210.50;5064371;28;20477;-55
2022/10/05 08:23:29;;;;;;;3.67;1.70;;;;;;;16.17;nan;101243.03;5056248;28;20024;-57
2022/10/05 08:26:12;;;;;;;1.70;1.55;;;;;;;16.16;nan;101259.91;5092750;28;20559;-49
2022/10/05 08:28:42;;;;;;;1.48;1.38;;;;;;;16.16;nan;101243.09;5076521;28;20069;-52
2022/10/05 08:31:28;;;;;;;2.65;1.70;;;;;;;16.20;nan;101249.97;5060039;28;20038;-53
2022/10/05 08:34:14;;;;;;;3.60;1.35;;;;;;;16.21;nan;101247.25;5056475;28;20036;-57
2022/10/05 08:37:31;;;;;;;3.63;1.80;;;;;;;16.20;nan;101240.22;5056710;28;20028;-51
2022/10/05 08:40:17;;;;;;;4.45;1.70;;;;;;;16.29;nan;101254.84;4995708;28;20037;-57
2022/10/05 08:42:51;;;;;;;2.78;1.83;;;;;;;16.34;nan;101242.22;5002380;28;20042;-55
2022/10/05 08:45:22;;;;;;;4.88;1.83;;;;;;;16.42;nan;101245.34;5053434;28;20131;-53
2022/10/05 08:47:48;;;;;;;;;;;;;;;16.50;nan;101239.63;5074146;28;20433;-54
2022/10/05 08:50:21;;;;;;;2.47;1.83;;;;;;;16.60;nan;101230.28;5074019;28;19912;-57
2022/10/05 08:52:59;;;;;;;1.88;1.38;;;;;;;16.64;nan;101229.19;5074191;28;20422;-55
2022/10/05 08:55:47;;;;;;;2.92;1.65;;;;;;;16.72;nan;101233.16;5073942;28;20036;-54
2022/10/05 08:58:31;;;;;;;4.47;1.13;;;;;;;16.79;nan;101209.78;5073638;28;20067;-57
2022/10/05 09:01:02;;;;;;;1.98;1.58;;;;;;;16.88;nan;101231.44;5073949;28;20025;-56
2022/10/05 09:03:54;;;;;;;3.42;1.40;;;;;;;16.61;nan;101176.19;5073237;28;20143;-57
2022/10/05 09:06:49;;;;;;;2.50;1.02;;;;;;;16.98;nan;101225.66;5050013;28;20049;-56
2022/10/05 09:09:40;;;;;;;2.97;1.30;;;;;;;17.08;nan;101227.72;5063134;28;20056;-55
2022/10/05 09:12:19;;;;;;;3.72;1.20;;;;;;;17.16;nan;101222.84;5073585;28;20040;-52
2022/10/05 09:15:15;;;;;;;3.03;1.33;;;;;;;17.05;nan;101187.13;5073571;28;20039;-59
2022/10/05 09:17:43;;;;;;;1.27;1.00;;;;;;;17.28;nan;101230.19;5073598;28;20036;-53
2022/10/05 09:20:20;;;;;;;3.88;1.55;;;;;;;17.15;nan;101188.38;5073518;28;20041;-55
2022/10/05 09:23:09;;;;;;;1.83;1.23;;;;;;;17.31;nan;101219.38;5055840;28;20433;-54
2022/10/05 09:25:44;;;;;;;1.60;1.08;;;;;;;17.40;nan;101244.63;5055490;28;20086;-54
2022/10/05 09:28:23;;;;;;;2.35;1.20;;;;;;;17.18;nan;101193.53;5055357;28;20106;-53
2022/10/05 09:31:10;;;;;;;2.72;1.48;;;;;;;17.33;nan;101225.50;5073492;28;20052;-57
2022/10/05 09:34:20;;;;;;;3.72;1.38;;;;;;;17.30;nan;101209.69;5055320;28;20530;-56
2022/10/05 09:36:58;;;;;;;3.42;1.20;;;;;;;17.29;nan;101234.56;5065871;28;20036;-53
2022/10/05 09:39:45;;;;;;;1.20;1.10;;;;;;;17.31;nan;101224.69;5073023;28;20102;-57
2022/10/05 09:42:11;;;;;;;3.47;1.20;;;;;;;17.26;nan;101218.78;5073175;28;20047;-56
2022/10/05 09:45:00;;;;;;;2.97;2.08;;;;;;;17.24;nan;101222.47;5073104;28;20107;-53
2022/10/05 09:47:32;;;;;;;3.22;1.23;;;;;;;17.18;nan;101228.09;5055293;28;20059;-55
2022/10/05 09:50:26;;;;;;;1.40;1.23;;;;;;;17.23;nan;101228.72;5073295;28;20063;-58
2022/10/05 09:53:22;;;;;;;2.25;1.45;;;;;;;16.97;nan;101194.66;5055237;28;20060;-58
2022/10/05 09:56:07;;;;;;;2.47;0.98;;;;;;;17.00;nan;101237.91;5055149;28;20036;-51
2022/10/05 09:59:17;;;;;;;2.72;1.38;;;;;;;16.95;nan;101221.34;5072852;28;20036;-56
2022/10/05 10:01:45;;;;;;;3.80;1.20;;;;;;;16.91;nan;101213.59;5073201;28;20029;-56
2022/10/05 10:04:40;;;;;;;1.38;0.90;;;;;;;16.67;nan;101181.19;5072671;28;20040;-53
2022/10/05 10:07:43;;;;;;;2.50;1.20;;;;;;;16.88;nan;101209.31;5054718;28;20493;-53
2022/10/05 10:10:14;;;;;;;1.85;1.20;;;;;;;16.90;nan;101211.91;5072705;28;20055;-55
2022/10/05 10:13:03;;;;;;;;;;;;;;;16.88;nan;101204.84;5072977;28;20091;-52
2022/10/05 10:16:06;;;;;;;3.58;1.73;;;;;;;16.96;nan;101209.75;5052573;28;20287;-57
2022/10/05 10:19:09;;;;;;;4.20;1.38;;;;;;;16.98;nan;101207.03;5072485;28;20028;-57
2022/10/05 10:21:46;;;;;;;4.47;1.20;;;;;;;16.95;nan;101202.75;5054600;28;20107;-55
2022/10/05 10:24:23;;;;;;;4.45;1.30;;;;;;;16.98;nan;101199.91;5072465;28;20119;-56
2022/10/05 10:27:32;;;;;;;3.58;1.77;;;;;;;16.90;nan;101198.59;5054193;28;20025;-56
2022/10/05 10:30:22;;;;;;;3.45;1.85;;;;;;;16.94;nan;101211.66;4973961;28;20046;-54
2022/10/05 10:33:10;;;;;;;1.50;1.30;;;;;;;16.83;nan;101204.25;5072223;28;20043;-55
2022/10/05 10:35:49;;;;;;;2.20;1.80;;;;;;;16.91;nan;101200.31;5071877;28;20043;-54
2022/10/05 10:38:29;;;;;;;2.72;1.90;;;;;;;16.89;nan;101192.44;5054070;28;20438;-55
2022/10/05 10:41:24;;;;;;;3.85;2.33;;;;;;;16.92;nan;101186.09;5072286;28;20383;-54
2022/10/05 10:44:02;;;;;;;3.33;2.40;;;;;;;16.90;nan;101191.47;5072002;28;20055;-54
2022/10/05 10:46:39;;;;;;;3.22;2.40;;;;;;;16.92;nan;101191.41;5071923;28;20029;-54
2022/10/05 10:49:41;;;;;;;2.22;2.08;;;;;;;16.91;nan;101203.84;5071522;28;20055;-54
2022/10/05 10:52:18;;;;;;;4.05;2.50;;;;;;;16.79;nan;101184.06;5071574;28;20098;-51
2022/10/05 10:55:14;;;;;;;3.63;2.40;;;;;;;16.88;nan;101196.00;5070279;28;20396;-51
2022/10/05 10:57:54;;;;;;;4.15;2.22;;;;;;;16.95;nan;101181.47;5053730;28;20609;-57
2022/10/05 11:00:48;;;;;;;4.80;2.03;;;;;;;16.71;nan;101151.72;5071586;28;20032;-55
2022/10/05 11:03:37;;;;;;;2.80;2.15;;;;;;;16.99;nan;101198.97;5071468;28;21380;-53
2022/10/05 11:06:34;;;;;;;3.55;1.90;;;;;;;16.76;nan;101146.16;5071599;28;20047;-53
2022/10/05 11:09:23;;;;;;;4.95;1.95;;;;;;;16.94;nan;101186.84;5071350;28;20051;-52
2022/10/05 11:11:56;;;;;;;3.22;2.30;;;;;;;16.90;nan;101191.47;5053631;28;20411;-56
2022/10/05 11:15:03;;;;;;;2.40;2.00;;;;;;;16.92;nan;101176.31;5071451;28;20060;-55
2022/10/05 11:17:50;;;;;;;2.28;1.98;;;;;;;16.88;nan;101198.69;5049177;28;20140;-55
2022/10/05 11:20:35;;;;;;;2.60;2.20;;;;;;;16.84;nan;101197.13;5071099;28;20029;-56
2022/10/05 11:23:41;;;;;;;2.28;1.90;;;;;;;16.85;nan;101185.53;5071044;28;20024;-53
2022/10/05 11:26:31;;;;;;;4.95;2.25;;;;;;;16.88;nan;101180.94;4989492;28;20042;-56
2022/10/05 11:29:33;;;;;;;4.82;2.60;;;;;;;16.88;nan;101177.41;4989433;28;20072;-54
2022/10/05 11:31:58;;;;;;;4.88;2.70;;;;;;;16.88;nan;101186.25;5062344;28;20037;-57
2022/10/05 11:34:29;;;;;;;4.37;2.23;;;;;;;16.96;nan;101174.34;5070999;28;20044;-54
2022/10/05 11:37:06;;;;;;;3.40;2.33;;;;;;;16.95;nan;101177.94;5053136;28;20286;-53
2022/10/05 11:39:58;;;;;;;3.33;2.35;;;;;;;16.95;nan;101167.31;5070929;28;20032;-54
2022/10/05 11:43:00;;;;;;;2.50;2.28;;;;;;;17.06;nan;101160.47;5053037;28;20036;-59
2022/10/05 11:45:54;;;;;;;2.83;2.33;;;;;;;17.17;nan;101163.41;5053369;28;20038;-57
2022/10/05 11:48:41;;;;;;;5.80;2.35;;;;;;;17.22;nan;101158.69;5070593;28;20068;-53
2022/10/05 11:51:20;;;;;;;3.90;2.30;;;;;;;17.34;nan;101166.00;5052646;28;20687;-55
2022/10/05 11:54:05;;;;;;;2.67;1.98;;;;;;;17.25;nan;101153.19;5069526;28;20064;-55
2022/10/05 11:56:40;;;;;;;3.38;2.08;;;;;;;17.33;nan;101164.28;5052889;28;20040;-56
2022/10/05 11:59:20;;;;;;;2.83;2.08;;;;;;;17.31;nan;101170.63;5053074;28;20062;-55
2022/10/05 12:02:04;;;;;;;5.03;2.10;;;;;;;17.40;nan;101160.34;5056475;28;20067;-52
2022/10/05 12:04:49;;;;;;;2.35;1.85;;;;;;;17.51;nan;101166.88;5056705;28;20045;-52
2022/10/05 12:07:34;;;;;;;3.78;2.33;;;;;;;17.43;nan;101154.84;5074946;28;20032;-53
2022/10/05 12:10:13;;;;;;;3.10;2.05;;;;;;;17.38;nan;101148.94;5074655;28;20135;-50
2022/10/05 12:13:07;;;;;;;4.10;1.80;;;;;;;17.28;nan;101120.22;5056898;28;20116;-49
2022/10/05 12:15:57;;;;;;;5.93;2.20;;;;;;;17.38;nan;101117.00;5074835;28;20028;-53
2022/10/05 12:18:29;;;;;;;4.00;1.70;;;;;;;17.67;nan;101151.78;5058913;28;20131;-50
2022/10/05 12:21:28;;;;;;;2.63;2.20;;;;;;;17.66;nan;101145.59;5072747;28;20067;-52
2022/10/05 12:23:59;;;;;;;5.47;2.08;;;;;;;17.75;nan;101141.53;5074748;28;20068;-53
2022/10/05 12:26:35;;;;;;;4.10;1.73;;;;;;;17.71;nan;101148.88;5074453;28;20033;-51
2022/10/05 12:29:22;;;;;;;2.42;2.20;;;;;;;17.73;nan;101138.97;5074461;28;20029;-51
2022/10/05 12:31:50;;;;;;;4.78;1.95;;;;;;;17.78;nan;101144.03;5056280;28;20082;-49
2022/10/05 12:34:37;;;;;;;3.80;1.55;;;;;;;17.85;nan;101130.28;5056215;28;20067;-51
2022/10/05 12:37:31;;;;;;;4.03;1.63;;;;;;;17.66;nan;101100.34;5056473;28;20377;-58
2022/10/05 12:40:26;;;;;;;3.20;1.98;;;;;;;17.83;nan;101139.31;5056334;28;20033;-50
2022/10/05 12:43:22;;;;;;;1.92;1.48;;;;;;;17.84;nan;101149.00;5040885;28;20051;-52
2022/10/05 12:46:03;;;;;;;5.22;1.75;;;;;;;17.84;nan;101143.69;5073997;28;20028;-57
2022/10/05 12:48:43;;;;;;;2.55;1.95;;;;;;;17.55;nan;101099.22;5073633;28;20460;-50
2022/10/05 12:51:42;;;;;;;2.30;1.73;;;;;;;17.81;nan;101144.72;5074197;28;20024;-52